sensor_id;sensor_type;location;lat;lon;timestamp;P1;durP1;ratioP1;P2;durP2;ratioP2
12296;SDS011;6211;49.124;9.152;2023-05-16T00:02:03;5.97;;;4.35;;
12296;SDS011;6211;49.124;9.152;2023-05-16T00:04:30;11.05;;;5.13;;
12296;SDS011;6211;49.124;9.152;2023-05-16T00:06:58;6.03;;;4.50;;
12296;SDS011;6211;49.124;9.152;2023-05-16T00:09:25;8.10;;;5.72;;
12296;SDS011;6211;49.124;9.152;2023-05-16T00:11:52;6.38;;;4.63;;
12296;SDS011;6211;49.124;9.152;2023-05-16T00:14:19;6.70;;;4.95;;
12296;SDS011;6211;49.124;9.152;2023-05-16T00:16:47;7.25;;;5.00;;
12296;SDS011;6211;49.124;9.152;2023-05-16T00:19:14;7.15;;;5.13;;
12296;SDS011;6211;49.124;9.152;2023-05-16T00:21:41;7.43;;;5.25;;
12296;SDS011;6211;49.124;9.152;2023-05-16T00:24:09;6.57;;;4.97;;
12296;SDS011;6211;49.124;9.152;2023-05-16T00:26:36;7.63;;;5.30;;
12296;SDS011;6211;49.124;9.152;2023-05-16T00:29:03;8.07;;;5.53;;
12296;SDS011;6211;49.124;9.152;2023-05-16T00:31:31;6.47;;;5.07;;
12296;SDS011;6211;49.124;9.152;2023-05-16T00:33:59;8.98;;;6.13;;
12296;SDS011;6211;49.124;9.152;2023-05-16T00:36:26;6.60;;;5.18;;
12296;SDS011;6211;49.124;9.152;2023-05-16T00:38:55;6.55;;;4.68;;
12296;SDS011;6211;49.124;9.152;2023-05-16T00:41:22;6.53;;;5.32;;
12296;SDS011;6211;49.124;9.152;2023-05-16T00:43:50;8.07;;;6.00;;
12296;SDS011;6211;49.124;9.152;2023-05-16T00:46:17;7.47;;;5.65;;
12296;SDS011;6211;49.124;9.152;2023-05-16T00:48:45;7.13;;;5.18;;
12296;SDS011;6211;49.124;9.152;2023-05-16T00:51:13;9.35;;;5.88;;
12296;SDS011;6211;49.124;9.152;2023-05-16T00:53:40;9.88;;;5.35;;
12296;SDS011;6211;49.124;9.152;2023-05-16T00:56:08;7.65;;;5.28;;
12296;SDS011;6211;49.124;9.152;2023-05-16T00:58:35;7.80;;;5.60;;
12296;SDS011;6211;49.124;9.152;2023-05-16T01:01:03;12.70;;;6.07;;
12296;SDS011;6211;49.124;9.152;2023-05-16T01:03:30;8.35;;;5.55;;
12296;SDS011;6211;49.124;9.152;2023-05-16T01:05:57;7.60;;;6.07;;
12296;SDS011;6211;49.124;9.152;2023-05-16T01:08:25;7.45;;;5.22;;
12296;SDS011;6211;49.124;9.152;2023-05-16T01:10:56;8.32;;;5.80;;
12296;SDS011;6211;49.124;9.152;2023-05-16T01:13:26;9.02;;;5.60;;
12296;SDS011;6211;49.124;9.152;2023-05-16T01:15:56;7.88;;;5.70;;
12296;SDS011;6211;49.124;9.152;2023-05-16T01:18:24;6.55;;;5.25;;
12296;SDS011;6211;49.124;9.152;2023-05-16T01:20:55;8.07;;;5.60;;
12296;SDS011;6211;49.124;9.152;2023-05-16T01:23:40;9.77;;;7.03;;
12296;SDS011;6211;49.124;9.152;2023-05-16T01:26:15;11.88;;;7.22;;
12296;SDS011;6211;49.124;9.152;2023-05-16T01:28:45;13.82;;;8.50;;
12296;SDS011;6211;49.124;9.152;2023-05-16T01:31:13;11.15;;;7.53;;
12296;SDS011;6211;49.124;9.152;2023-05-16T01:33:40;12.50;;;8.63;;
12296;SDS011;6211;49.124;9.152;2023-05-16T01:36:09;10.43;;;7.13;;
12296;SDS011;6211;49.124;9.152;2023-05-16T01:38:38;8.75;;;6.22;;
12296;SDS011;6211;49.124;9.152;2023-05-16T01:41:07;7.75;;;5.78;;
12296;SDS011;6211;49.124;9.152;2023-05-16T01:43:41;9.38;;;6.35;;
12296;SDS011;6211;49.124;9.152;2023-05-16T01:46:09;9.10;;;6.13;;
12296;SDS011;6211;49.124;9.152;2023-05-16T01:48:38;9.35;;;7.03;;
12296;SDS011;6211;49.124;9.152;2023-05-16T01:51:09;11.48;;;7.80;;
12296;SDS011;6211;49.124;9.152;2023-05-16T01:53:37;9.30;;;6.20;;
12296;SDS011;6211;49.124;9.152;2023-05-16T01:56:07;12.73;;;7.32;;
12296;SDS011;6211;49.124;9.152;2023-05-16T01:58:35;11.25;;;8.52;;
12296;SDS011;6211;49.124;9.152;2023-05-16T02:01:04;14.85;;;9.40;;
12296;SDS011;6211;49.124;9.152;2023-05-16T02:03:32;12.40;;;9.07;;
12296;SDS011;6211;49.124;9.152;2023-05-16T02:05:59;16.75;;;9.70;;
12296;SDS011;6211;49.124;9.152;2023-05-16T02:08:26;14.82;;;10.07;;
12296;SDS011;6211;49.124;9.152;2023-05-16T02:10:54;17.17;;;10.30;;
12296;SDS011;6211;49.124;9.152;2023-05-16T02:13:21;19.05;;;9.95;;
12296;SDS011;6211;49.124;9.152;2023-05-16T02:15:48;15.63;;;10.57;;
12296;SDS011;6211;49.124;9.152;2023-05-16T02:18:18;16.23;;;9.07;;
12296;SDS011;6211;49.124;9.152;2023-05-16T02:20:47;18.58;;;10.18;;
12296;SDS011;6211;49.124;9.152;2023-05-16T02:23:14;17.88;;;9.45;;
12296;SDS011;6211;49.124;9.152;2023-05-16T02:25:41;16.15;;;9.13;;
12296;SDS011;6211;49.124;9.152;2023-05-16T02:28:09;16.77;;;10.15;;
12296;SDS011;6211;49.124;9.152;2023-05-16T02:30:36;12.23;;;9.43;;
12296;SDS011;6211;49.124;9.152;2023-05-16T02:33:03;18.98;;;10.10;;
12296;SDS011;6211;49.124;9.152;2023-05-16T02:35:31;18.25;;;9.88;;
12296;SDS011;6211;49.124;9.152;2023-05-16T02:37:58;16.23;;;9.13;;
12296;SDS011;6211;49.124;9.152;2023-05-16T02:40:26;14.18;;;9.25;;
12296;SDS011;6211;49.124;9.152;2023-05-16T02:42:53;19.70;;;10.05;;
12296;SDS011;6211;49.124;9.152;2023-05-16T02:45:20;16.65;;;9.55;;
12296;SDS011;6211;49.124;9.152;2023-05-16T02:47:47;16.00;;;9.77;;
12296;SDS011;6211;49.124;9.152;2023-05-16T02:50:14;16.23;;;10.10;;
12296;SDS011;6211;49.124;9.152;2023-05-16T02:52:43;16.95;;;11.07;;
12296;SDS011;6211;49.124;9.152;2023-05-16T02:55:11;15.30;;;9.60;;
12296;SDS011;6211;49.124;9.152;2023-05-16T02:57:38;20.70;;;9.88;;
12296;SDS011;6211;49.124;9.152;2023-05-16T03:00:06;17.13;;;9.27;;
12296;SDS011;6211;49.124;9.152;2023-05-16T03:02:35;14.68;;;9.00;;
12296;SDS011;6211;49.124;9.152;2023-05-16T03:05:02;14.32;;;9.73;;
12296;SDS011;6211;49.124;9.152;2023-05-16T03:07:30;16.13;;;9.13;;
12296;SDS011;6211;49.124;9.152;2023-05-16T03:09:58;17.63;;;8.82;;
12296;SDS011;6211;49.124;9.152;2023-05-16T03:12:26;13.48;;;9.00;;
12296;SDS011;6211;49.124;9.152;2023-05-16T03:14:53;17.95;;;9.15;;
12296;SDS011;6211;49.124;9.152;2023-05-16T03:17:20;16.15;;;8.90;;
12296;SDS011;6211;49.124;9.152;2023-05-16T03:19:47;13.75;;;8.95;;
12296;SDS011;6211;49.124;9.152;2023-05-16T03:22:14;15.65;;;9.38;;
12296;SDS011;6211;49.124;9.152;2023-05-16T03:24:41;18.63;;;8.93;;
12296;SDS011;6211;49.124;9.152;2023-05-16T03:27:10;13.90;;;9.27;;
12296;SDS011;6211;49.124;9.152;2023-05-16T03:29:37;15.18;;;9.98;;
12296;SDS011;6211;49.124;9.152;2023-05-16T03:32:04;16.08;;;10.18;;
12296;SDS011;6211;49.124;9.152;2023-05-16T03:34:31;16.02;;;9.27;;
12296;SDS011;6211;49.124;9.152;2023-05-16T03:36:58;18.50;;;11.18;;
12296;SDS011;6211;49.124;9.152;2023-05-16T03:39:25;17.52;;;10.80;;
12296;SDS011;6211;49.124;9.152;2023-05-16T03:41:53;16.33;;;8.50;;
12296;SDS011;6211;49.124;9.152;2023-05-16T03:44:22;18.77;;;10.40;;
12296;SDS011;6211;49.124;9.152;2023-05-16T03:46:49;17.45;;;10.73;;
12296;SDS011;6211;49.124;9.152;2023-05-16T03:49:16;17.85;;;9.38;;
12296;SDS011;6211;49.124;9.152;2023-05-16T03:51:45;17.38;;;9.10;;
12296;SDS011;6211;49.124;9.152;2023-05-16T03:54:12;16.35;;;9.65;;
12296;SDS011;6211;49.124;9.152;2023-05-16T03:56:39;15.68;;;8.98;;
12296;SDS011;6211;49.124;9.152;2023-05-16T03:59:06;18.17;;;10.95;;
12296;SDS011;6211;49.124;9.152;2023-05-16T04:01:34;18.73;;;9.43;;
12296;SDS011;6211;49.124;9.152;2023-05-16T04:04:01;17.75;;;9.60;;
12296;SDS011;6211;49.124;9.152;2023-05-16T04:06:29;17.27;;;9.40;;
12296;SDS011;6211;49.124;9.152;2023-05-16T04:08:56;18.40;;;9.25;;
12296;SDS011;6211;49.124;9.152;2023-05-16T04:11:23;18.23;;;10.48;;
12296;SDS011;6211;49.124;9.152;2023-05-16T04:13:51;16.70;;;8.77;;
12296;SDS011;6211;49.124;9.152;2023-05-16T04:16:19;14.75;;;9.60;;
12296;SDS011;6211;49.124;9.152;2023-05-16T04:18:47;17.88;;;10.18;;
12296;SDS011;6211;49.124;9.152;2023-05-16T04:21:14;17.70;;;9.20;;
12296;SDS011;6211;49.124;9.152;2023-05-16T04:23:41;15.43;;;9.68;;
12296;SDS011;6211;49.124;9.152;2023-05-16T04:26:08;14.25;;;9.43;;
12296;SDS011;6211;49.124;9.152;2023-05-16T04:28:36;13.77;;;8.65;;
12296;SDS011;6211;49.124;9.152;2023-05-16T04:31:04;19.55;;;9.35;;
12296;SDS011;6211;49.124;9.152;2023-05-16T04:33:32;15.50;;;9.32;;
12296;SDS011;6211;49.124;9.152;2023-05-16T04:36:00;15.57;;;9.23;;
12296;SDS011;6211;49.124;9.152;2023-05-16T04:38:28;17.20;;;8.77;;
12296;SDS011;6211;49.124;9.152;2023-05-16T04:40:55;18.08;;;9.50;;
12296;SDS011;6211;49.124;9.152;2023-05-16T04:43:22;18.58;;;10.00;;
12296;SDS011;6211;49.124;9.152;2023-05-16T04:45:49;16.40;;;10.48;;
12296;SDS011;6211;49.124;9.152;2023-05-16T04:48:17;16.00;;;9.77;;
12296;SDS011;6211;49.124;9.152;2023-05-16T04:50:45;23.63;;;10.07;;
12296;SDS011;6211;49.124;9.152;2023-05-16T04:53:13;14.52;;;9.50;;
12296;SDS011;6211;49.124;9.152;2023-05-16T04:55:40;17.23;;;9.48;;
12296;SDS011;6211;49.124;9.152;2023-05-16T04:58:07;18.98;;;10.77;;
12296;SDS011;6211;49.124;9.152;2023-05-16T05:00:34;16.17;;;10.02;;
12296;SDS011;6211;49.124;9.152;2023-05-16T05:03:02;16.40;;;9.77;;
12296;SDS011;6211;49.124;9.152;2023-05-16T05:05:29;17.85;;;10.20;;
12296;SDS011;6211;49.124;9.152;2023-05-16T05:07:56;14.45;;;9.00;;
12296;SDS011;6211;49.124;9.152;2023-05-16T05:10:25;13.82;;;8.27;;
12296;SDS011;6211;49.124;9.152;2023-05-16T05:12:52;14.27;;;8.50;;
12296;SDS011;6211;49.124;9.152;2023-05-16T05:15:20;15.20;;;9.77;;
12296;SDS011;6211;49.124;9.152;2023-05-16T05:17:47;12.63;;;8.23;;
12296;SDS011;6211;49.124;9.152;2023-05-16T05:20:14;13.98;;;8.65;;
12296;SDS011;6211;49.124;9.152;2023-05-16T05:22:41;14.50;;;8.32;;
12296;SDS011;6211;49.124;9.152;2023-05-16T05:25:08;15.60;;;9.77;;
12296;SDS011;6211;49.124;9.152;2023-05-16T05:27:37;19.38;;;10.05;;
12296;SDS011;6211;49.124;9.152;2023-05-16T05:30:05;18.63;;;9.90;;
12296;SDS011;6211;49.124;9.152;2023-05-16T05:32:32;16.50;;;10.00;;
12296;SDS011;6211;49.124;9.152;2023-05-16T05:34:59;15.90;;;9.35;;
12296;SDS011;6211;49.124;9.152;2023-05-16T05:37:27;14.63;;;9.00;;
12296;SDS011;6211;49.124;9.152;2023-05-16T05:39:55;15.32;;;9.38;;
12296;SDS011;6211;49.124;9.152;2023-05-16T05:42:22;16.60;;;9.68;;
12296;SDS011;6211;49.124;9.152;2023-05-16T05:44:50;15.07;;;8.98;;
12296;SDS011;6211;49.124;9.152;2023-05-16T05:47:17;15.38;;;8.65;;
12296;SDS011;6211;49.124;9.152;2023-05-16T05:49:45;14.05;;;8.65;;
12296;SDS011;6211;49.124;9.152;2023-05-16T05:52:12;13.93;;;8.77;;
12296;SDS011;6211;49.124;9.152;2023-05-16T05:54:39;16.80;;;9.23;;
12296;SDS011;6211;49.124;9.152;2023-05-16T05:57:07;14.68;;;9.43;;
12296;SDS011;6211;49.124;9.152;2023-05-16T05:59:34;13.80;;;8.52;;
12296;SDS011;6211;49.124;9.152;2023-05-16T06:02:02;15.52;;;7.93;;
12296;SDS011;6211;49.124;9.152;2023-05-16T06:04:29;11.52;;;7.28;;
12296;SDS011;6211;49.124;9.152;2023-05-16T06:06:57;10.77;;;6.63;;
12296;SDS011;6211;49.124;9.152;2023-05-16T06:09:24;9.50;;;6.28;;
12296;SDS011;6211;49.124;9.152;2023-05-16T06:11:51;8.55;;;6.13;;
12296;SDS011;6211;49.124;9.152;2023-05-16T06:14:18;9.65;;;5.78;;
12296;SDS011;6211;49.124;9.152;2023-05-16T06:16:45;9.43;;;6.78;;
12296;SDS011;6211;49.124;9.152;2023-05-16T06:19:14;10.90;;;6.72;;
12296;SDS011;6211;49.124;9.152;2023-05-16T06:21:41;8.68;;;6.40;;
12296;SDS011;6211;49.124;9.152;2023-05-16T06:24:08;9.68;;;6.28;;
12296;SDS011;6211;49.124;9.152;2023-05-16T06:26:36;9.90;;;6.75;;
12296;SDS011;6211;49.124;9.152;2023-05-16T06:29:03;12.45;;;7.03;;
12296;SDS011;6211;49.124;9.152;2023-05-16T06:31:30;11.15;;;6.70;;
12296;SDS011;6211;49.124;9.152;2023-05-16T06:33:57;12.10;;;7.15;;
12296;SDS011;6211;49.124;9.152;2023-05-16T06:36:26;10.32;;;7.15;;
12296;SDS011;6211;49.124;9.152;2023-05-16T06:38:53;12.43;;;7.25;;
12296;SDS011;6211;49.124;9.152;2023-05-16T06:41:20;10.15;;;7.05;;
12296;SDS011;6211;49.124;9.152;2023-05-16T06:43:47;14.65;;;8.35;;
12296;SDS011;6211;49.124;9.152;2023-05-16T06:46:14;13.13;;;7.72;;
12296;SDS011;6211;49.124;9.152;2023-05-16T06:48:41;10.77;;;7.32;;
12296;SDS011;6211;49.124;9.152;2023-05-16T06:51:08;11.30;;;6.95;;
12296;SDS011;6211;49.124;9.152;2023-05-16T06:53:37;12.23;;;7.45;;
12296;SDS011;6211;49.124;9.152;2023-05-16T06:56:04;13.82;;;7.80;;
12296;SDS011;6211;49.124;9.152;2023-05-16T06:58:31;13.88;;;7.95;;
12296;SDS011;6211;49.124;9.152;2023-05-16T07:00:58;12.88;;;7.40;;
12296;SDS011;6211;49.124;9.152;2023-05-16T07:03:26;11.68;;;7.78;;
12296;SDS011;6211;49.124;9.152;2023-05-16T07:05:53;11.55;;;7.57;;
12296;SDS011;6211;49.124;9.152;2023-05-16T07:08:21;10.00;;;7.32;;
12296;SDS011;6211;49.124;9.152;2023-05-16T07:10:49;11.20;;;6.93;;
12296;SDS011;6211;49.124;9.152;2023-05-16T07:13:16;11.50;;;7.50;;
12296;SDS011;6211;49.124;9.152;2023-05-16T07:15:43;14.90;;;8.65;;
12296;SDS011;6211;49.124;9.152;2023-05-16T07:18:10;14.77;;;8.35;;
12296;SDS011;6211;49.124;9.152;2023-05-16T07:20:38;13.52;;;8.15;;
12296;SDS011;6211;49.124;9.152;2023-05-16T07:23:05;12.35;;;7.75;;
12296;SDS011;6211;49.124;9.152;2023-05-16T07:25:32;12.73;;;7.32;;
12296;SDS011;6211;49.124;9.152;2023-05-16T07:28:00;14.05;;;7.85;;
12296;SDS011;6211;49.124;9.152;2023-05-16T07:30:28;14.38;;;8.10;;
12296;SDS011;6211;49.124;9.152;2023-05-16T07:32:55;13.85;;;7.82;;
12296;SDS011;6211;49.124;9.152;2023-05-16T07:35:22;17.95;;;8.52;;
12296;SDS011;6211;49.124;9.152;2023-05-16T07:37:49;14.45;;;8.63;;
12296;SDS011;6211;49.124;9.152;2023-05-16T07:40:16;16.58;;;9.00;;
12296;SDS011;6211;49.124;9.152;2023-05-16T07:42:45;16.75;;;8.65;;
12296;SDS011;6211;49.124;9.152;2023-05-16T07:45:14;18.17;;;9.70;;
12296;SDS011;6211;49.124;9.152;2023-05-16T07:47:41;14.20;;;7.93;;
12296;SDS011;6211;49.124;9.152;2023-05-16T07:50:09;16.65;;;8.18;;
12296;SDS011;6211;49.124;9.152;2023-05-16T07:52:36;16.35;;;9.45;;
12296;SDS011;6211;49.124;9.152;2023-05-16T07:55:03;16.48;;;9.05;;
12296;SDS011;6211;49.124;9.152;2023-05-16T07:57:30;14.80;;;9.15;;
12296;SDS011;6211;49.124;9.152;2023-05-16T07:59:58;17.98;;;9.93;;
12296;SDS011;6211;49.124;9.152;2023-05-16T08:02:26;18.63;;;10.18;;
12296;SDS011;6211;49.124;9.152;2023-05-16T08:04:54;17.60;;;10.38;;
12296;SDS011;6211;49.124;9.152;2023-05-16T08:07:21;16.58;;;9.75;;
12296;SDS011;6211;49.124;9.152;2023-05-16T08:09:49;19.05;;;10.18;;
12296;SDS011;6211;49.124;9.152;2023-05-16T08:12:16;16.80;;;9.65;;
12296;SDS011;6211;49.124;9.152;2023-05-16T08:14:43;19.55;;;10.93;;
12296;SDS011;6211;49.124;9.152;2023-05-16T08:17:10;18.42;;;10.02;;
12296;SDS011;6211;49.124;9.152;2023-05-16T08:19:38;20.13;;;10.10;;
12296;SDS011;6211;49.124;9.152;2023-05-16T08:22:06;20.75;;;11.95;;
12296;SDS011;6211;49.124;9.152;2023-05-16T08:24:33;22.48;;;11.40;;
12296;SDS011;6211;49.124;9.152;2023-05-16T08:27:00;20.95;;;10.32;;
12296;SDS011;6211;49.124;9.152;2023-05-16T08:29:27;22.30;;;10.65;;
12296;SDS011;6211;49.124;9.152;2023-05-16T08:31:55;19.25;;;10.68;;
12296;SDS011;6211;49.124;9.152;2023-05-16T08:34:23;23.13;;;10.23;;
12296;SDS011;6211;49.124;9.152;2023-05-16T08:36:51;21.10;;;11.85;;
12296;SDS011;6211;49.124;9.152;2023-05-16T08:39:19;19.23;;;10.60;;
12296;SDS011;6211;49.124;9.152;2023-05-16T08:41:46;18.13;;;9.93;;
12296;SDS011;6211;49.124;9.152;2023-05-16T08:44:13;18.98;;;9.80;;
12296;SDS011;6211;49.124;9.152;2023-05-16T08:46:46;18.98;;;10.05;;
12296;SDS011;6211;49.124;9.152;2023-05-16T08:49:16;21.08;;;10.00;;
12296;SDS011;6211;49.124;9.152;2023-05-16T08:51:44;21.08;;;10.98;;
12296;SDS011;6211;49.124;9.152;2023-05-16T08:54:13;23.20;;;10.20;;
12296;SDS011;6211;49.124;9.152;2023-05-16T08:56:41;18.08;;;9.82;;
12296;SDS011;6211;49.124;9.152;2023-05-16T08:59:08;18.95;;;10.02;;
12296;SDS011;6211;49.124;9.152;2023-05-16T09:01:36;17.70;;;9.18;;
12296;SDS011;6211;49.124;9.152;2023-05-16T09:04:05;14.95;;;8.05;;
12296;SDS011;6211;49.124;9.152;2023-05-16T09:06:32;17.92;;;9.57;;
12296;SDS011;6211;49.124;9.152;2023-05-16T09:09:00;16.60;;;9.27;;
12296;SDS011;6211;49.124;9.152;2023-05-16T09:11:30;14.32;;;7.55;;
12296;SDS011;6211;49.124;9.152;2023-05-16T09:13:57;13.65;;;7.25;;
12296;SDS011;6211;49.124;9.152;2023-05-16T09:16:24;11.80;;;6.82;;
12296;SDS011;6211;49.124;9.152;2023-05-16T09:18:52;12.73;;;7.38;;
12296;SDS011;6211;49.124;9.152;2023-05-16T09:21:20;12.40;;;6.97;;
12296;SDS011;6211;49.124;9.152;2023-05-16T09:23:48;15.35;;;7.82;;
12296;SDS011;6211;49.124;9.152;2023-05-16T09:26:15;9.80;;;6.05;;
12296;SDS011;6211;49.124;9.152;2023-05-16T09:28:44;13.63;;;6.78;;
12296;SDS011;6211;49.124;9.152;2023-05-16T09:31:20;12.43;;;6.28;;
12296;SDS011;6211;49.124;9.152;2023-05-16T09:33:50;12.85;;;6.28;;
12296;SDS011;6211;49.124;9.152;2023-05-16T09:36:17;11.38;;;6.10;;
12296;SDS011;6211;49.124;9.152;2023-05-16T09:38:44;15.65;;;7.60;;
12296;SDS011;6211;49.124;9.152;2023-05-16T09:41:11;12.10;;;6.82;;
12296;SDS011;6211;49.124;9.152;2023-05-16T09:43:39;11.10;;;5.72;;
12296;SDS011;6211;49.124;9.152;2023-05-16T09:46:08;13.40;;;6.10;;
12296;SDS011;6211;49.124;9.152;2023-05-16T09:48:39;10.82;;;6.30;;
12296;SDS011;6211;49.124;9.152;2023-05-16T09:51:08;10.32;;;5.45;;
12296;SDS011;6211;49.124;9.152;2023-05-16T09:53:36;9.30;;;4.88;;
12296;SDS011;6211;49.124;9.152;2023-05-16T09:56:04;9.15;;;5.75;;
12296;SDS011;6211;49.124;9.152;2023-05-16T09:58:37;9.10;;;4.88;;
12296;SDS011;6211;49.124;9.152;2023-05-16T10:01:04;8.00;;;4.05;;
12296;SDS011;6211;49.124;9.152;2023-05-16T10:03:34;8.98;;;4.82;;
12296;SDS011;6211;49.124;9.152;2023-05-16T10:06:02;6.15;;;4.63;;
12296;SDS011;6211;49.124;9.152;2023-05-16T10:08:30;8.50;;;4.18;;
12296;SDS011;6211;49.124;9.152;2023-05-16T10:11:00;6.32;;;3.72;;
12296;SDS011;6211;49.124;9.152;2023-05-16T10:13:28;7.47;;;4.15;;
12296;SDS011;6211;49.124;9.152;2023-05-16T10:15:57;6.13;;;3.53;;
12296;SDS011;6211;49.124;9.152;2023-05-16T10:18:28;5.97;;;3.47;;
12296;SDS011;6211;49.124;9.152;2023-05-16T10:21:05;7.05;;;4.22;;
12296;SDS011;6211;49.124;9.152;2023-05-16T10:23:32;7.40;;;3.78;;
12296;SDS011;6211;49.124;9.152;2023-05-16T10:26:01;4.28;;;3.08;;
12296;SDS011;6211;49.124;9.152;2023-05-16T10:28:30;4.75;;;3.35;;
12296;SDS011;6211;49.124;9.152;2023-05-16T10:30:57;3.83;;;3.15;;
12296;SDS011;6211;49.124;9.152;2023-05-16T10:33:25;3.95;;;2.65;;
12296;SDS011;6211;49.124;9.152;2023-05-16T10:35:52;4.28;;;2.72;;
12296;SDS011;6211;49.124;9.152;2023-05-16T10:38:21;5.20;;;3.17;;
12296;SDS011;6211;49.124;9.152;2023-05-16T10:40:48;4.68;;;3.10;;
12296;SDS011;6211;49.124;9.152;2023-05-16T10:43:23;4.32;;;3.08;;
12296;SDS011;6211;49.124;9.152;2023-05-16T10:45:53;3.58;;;2.85;;
12296;SDS011;6211;49.124;9.152;2023-05-16T10:48:27;5.05;;;3.65;;
12296;SDS011;6211;49.124;9.152;2023-05-16T10:50:54;6.20;;;3.45;;
12296;SDS011;6211;49.124;9.152;2023-05-16T10:53:28;3.45;;;2.65;;
12296;SDS011;6211;49.124;9.152;2023-05-16T10:56:08;3.53;;;2.67;;
12296;SDS011;6211;49.124;9.152;2023-05-16T10:58:42;5.65;;;3.05;;
12296;SDS011;6211;49.124;9.152;2023-05-16T11:01:16;3.55;;;2.53;;
12296;SDS011;6211;49.124;9.152;2023-05-16T11:06:29;4.85;;;2.42;;
12296;SDS011;6211;49.124;9.152;2023-05-16T11:09:04;2.67;;;2.08;;
12296;SDS011;6211;49.124;9.152;2023-05-16T11:11:40;3.35;;;2.45;;
12296;SDS011;6211;49.124;9.152;2023-05-16T11:14:08;2.67;;;1.92;;
12296;SDS011;6211;49.124;9.152;2023-05-16T11:16:37;3.28;;;2.40;;
12296;SDS011;6211;49.124;9.152;2023-05-16T11:19:05;2.08;;;1.90;;
12296;SDS011;6211;49.124;9.152;2023-05-16T11:24:28;2.20;;;1.70;;
12296;SDS011;6211;49.124;9.152;2023-05-16T11:26:55;2.17;;;1.85;;
12296;SDS011;6211;49.124;9.152;2023-05-16T11:29:23;5.32;;;1.92;;
12296;SDS011;6211;49.124;9.152;2023-05-16T11:31:51;3.38;;;1.80;;
12296;SDS011;6211;49.124;9.152;2023-05-16T11:34:18;2.50;;;1.95;;
12296;SDS011;6211;49.124;9.152;2023-05-16T11:36:45;1.95;;;1.48;;
12296;SDS011;6211;49.124;9.152;2023-05-16T11:39:13;3.10;;;1.65;;
12296;SDS011;6211;49.124;9.152;2023-05-16T11:41:41;1.73;;;1.60;;
12296;SDS011;6211;49.124;9.152;2023-05-16T11:44:10;1.75;;;1.63;;
12296;SDS011;6211;49.124;9.152;2023-05-16T11:46:38;2.90;;;1.33;;
12296;SDS011;6211;49.124;9.152;2023-05-16T11:49:05;1.73;;;1.63;;
12296;SDS011;6211;49.124;9.152;2023-05-16T11:51:33;1.70;;;1.60;;
12296;SDS011;6211;49.124;9.152;2023-05-16T11:54:01;1.73;;;1.63;;
12296;SDS011;6211;49.124;9.152;2023-05-16T11:56:29;1.92;;;1.58;;
12296;SDS011;6211;49.124;9.152;2023-05-16T11:58:58;1.80;;;1.55;;
12296;SDS011;6211;49.124;9.152;2023-05-16T12:01:30;1.30;;;1.20;;
12296;SDS011;6211;49.124;9.152;2023-05-16T12:03:57;3.63;;;1.40;;
12296;SDS011;6211;49.124;9.152;2023-05-16T12:06:25;1.33;;;1.20;;
12296;SDS011;6211;49.124;9.152;2023-05-16T12:08:53;1.52;;;1.42;;
12296;SDS011;6211;49.124;9.152;2023-05-16T12:11:21;3.42;;;1.60;;
12296;SDS011;6211;49.124;9.152;2023-05-16T12:13:49;1.52;;;1.35;;
12296;SDS011;6211;49.124;9.152;2023-05-16T12:16:17;1.38;;;1.23;;
12296;SDS011;6211;49.124;9.152;2023-05-16T12:18:45;2.20;;;1.45;;
12296;SDS011;6211;49.124;9.152;2023-05-16T12:21:13;1.30;;;1.10;;
12296;SDS011;6211;49.124;9.152;2023-05-16T12:23:41;1.50;;;1.40;;
12296;SDS011;6211;49.124;9.152;2023-05-16T12:26:08;2.70;;;1.42;;
12296;SDS011;6211;49.124;9.152;2023-05-16T12:28:35;1.23;;;1.13;;
12296;SDS011;6211;49.124;9.152;2023-05-16T12:31:03;1.55;;;1.23;;
12296;SDS011;6211;49.124;9.152;2023-05-16T12:33:39;1.50;;;1.40;;
12296;SDS011;6211;49.124;9.152;2023-05-16T12:36:11;2.53;;;1.30;;
12296;SDS011;6211;49.124;9.152;2023-05-16T12:38:39;1.30;;;1.20;;
12296;SDS011;6211;49.124;9.152;2023-05-16T12:41:07;0.90;;;0.90;;
12296;SDS011;6211;49.124;9.152;2023-05-16T12:43:34;1.60;;;1.50;;
12296;SDS011;6211;49.124;9.152;2023-05-16T12:46:01;2.78;;;1.60;;
12296;SDS011;6211;49.124;9.152;2023-05-16T12:48:32;1.40;;;1.30;;
12296;SDS011;6211;49.124;9.152;2023-05-16T12:51:10;4.15;;;1.70;;
12296;SDS011;6211;49.124;9.152;2023-05-16T12:53:42;2.13;;;1.50;;
12296;SDS011;6211;49.124;9.152;2023-05-16T12:56:10;1.88;;;1.30;;
12296;SDS011;6211;49.124;9.152;2023-05-16T12:58:39;1.40;;;1.30;;
12296;SDS011;6211;49.124;9.152;2023-05-16T13:01:07;1.65;;;1.20;;
12296;SDS011;6211;49.124;9.152;2023-05-16T13:03:35;0.93;;;0.93;;
12296;SDS011;6211;49.124;9.152;2023-05-16T13:06:02;2.72;;;1.70;;
12296;SDS011;6211;49.124;9.152;2023-05-16T13:08:31;1.20;;;1.10;;
12296;SDS011;6211;49.124;9.152;2023-05-16T13:10:59;1.20;;;1.20;;
12296;SDS011;6211;49.124;9.152;2023-05-16T13:13:26;4.78;;;1.33;;
12296;SDS011;6211;49.124;9.152;2023-05-16T13:15:53;2.05;;;0.95;;
12296;SDS011;6211;49.124;9.152;2023-05-16T13:18:20;1.23;;;1.13;;
12296;SDS011;6211;49.124;9.152;2023-05-16T13:20:48;1.08;;;1.02;;
12296;SDS011;6211;49.124;9.152;2023-05-16T13:23:15;1.05;;;1.00;;
12296;SDS011;6211;49.124;9.152;2023-05-16T13:25:44;0.80;;;0.80;;
12296;SDS011;6211;49.124;9.152;2023-05-16T13:28:11;1.60;;;1.02;;
12296;SDS011;6211;49.124;9.152;2023-05-16T13:30:38;1.33;;;1.23;;
12296;SDS011;6211;49.124;9.152;2023-05-16T13:33:05;2.03;;;1.15;;
12296;SDS011;6211;49.124;9.152;2023-05-16T13:35:32;1.13;;;0.70;;
12296;SDS011;6211;49.124;9.152;2023-05-16T13:38:00;2.40;;;1.25;;
12296;SDS011;6211;49.124;9.152;2023-05-16T13:40:27;2.85;;;0.98;;
12296;SDS011;6211;49.124;9.152;2023-05-16T13:42:56;2.92;;;1.00;;
12296;SDS011;6211;49.124;9.152;2023-05-16T13:45:24;0.93;;;0.93;;
12296;SDS011;6211;49.124;9.152;2023-05-16T13:47:52;1.27;;;0.90;;
12296;SDS011;6211;49.124;9.152;2023-05-16T13:50:19;1.10;;;0.70;;
12296;SDS011;6211;49.124;9.152;2023-05-16T13:52:46;1.60;;;1.00;;
12296;SDS011;6211;49.124;9.152;2023-05-16T13:55:13;0.80;;;0.80;;
12296;SDS011;6211;49.124;9.152;2023-05-16T13:57:40;0.85;;;0.85;;
12296;SDS011;6211;49.124;9.152;2023-05-16T14:00:09;2.05;;;1.02;;
12296;SDS011;6211;49.124;9.152;2023-05-16T14:02:37;2.10;;;0.95;;
12296;SDS011;6211;49.124;9.152;2023-05-16T14:05:05;0.85;;;0.80;;
12296;SDS011;6211;49.124;9.152;2023-05-16T14:07:32;1.75;;;1.00;;
12296;SDS011;6211;49.124;9.152;2023-05-16T14:09:59;0.82;;;0.82;;
12296;SDS011;6211;49.124;9.152;2023-05-16T14:12:27;0.73;;;0.73;;
12296;SDS011;6211;49.124;9.152;2023-05-16T14:14:55;2.28;;;0.95;;
12296;SDS011;6211;49.124;9.152;2023-05-16T14:17:24;2.38;;;1.00;;
12296;SDS011;6211;49.124;9.152;2023-05-16T14:19:51;1.35;;;0.98;;
12296;SDS011;6211;49.124;9.152;2023-05-16T14:22:19;1.38;;;1.15;;
12296;SDS011;6211;49.124;9.152;2023-05-16T14:24:46;1.23;;;1.00;;
12296;SDS011;6211;49.124;9.152;2023-05-16T14:27:13;1.75;;;1.00;;
12296;SDS011;6211;49.124;9.152;2023-05-16T14:29:40;1.83;;;1.15;;
12296;SDS011;6211;49.124;9.152;2023-05-16T14:32:08;1.30;;;1.02;;
12296;SDS011;6211;49.124;9.152;2023-05-16T14:34:39;0.80;;;0.80;;
12296;SDS011;6211;49.124;9.152;2023-05-16T14:37:06;0.93;;;0.65;;
12296;SDS011;6211;49.124;9.152;2023-05-16T14:39:34;1.17;;;0.80;;
12296;SDS011;6211;49.124;9.152;2023-05-16T14:42:01;2.53;;;0.80;;
12296;SDS011;6211;49.124;9.152;2023-05-16T14:44:28;0.80;;;0.80;;
12296;SDS011;6211;49.124;9.152;2023-05-16T14:46:55;1.65;;;0.70;;
12296;SDS011;6211;49.124;9.152;2023-05-16T14:49:22;1.52;;;1.00;;
12296;SDS011;6211;49.124;9.152;2023-05-16T14:51:51;2.60;;;1.13;;
12296;SDS011;6211;49.124;9.152;2023-05-16T14:54:18;1.02;;;1.00;;
12296;SDS011;6211;49.124;9.152;2023-05-16T14:56:45;3.25;;;1.20;;
12296;SDS011;6211;49.124;9.152;2023-05-16T14:59:12;1.60;;;1.08;;
12296;SDS011;6211;49.124;9.152;2023-05-16T15:01:39;1.90;;;0.93;;
12296;SDS011;6211;49.124;9.152;2023-05-16T15:04:07;1.73;;;1.30;;